createdAt,value
2022-10-19T00:02:51.300Z,10.46
2022-10-19T00:05:53.536Z,10.31
2022-10-19T00:08:56.996Z,10.23
2022-10-19T00:11:59.243Z,10.23
2022-10-19T00:15:01.202Z,10.40
2022-10-19T00:18:03.455Z,10.29
2022-10-19T00:21:09.271Z,10.31
2022-10-19T00:24:11.597Z,10.26
2022-10-19T00:27:13.565Z,10.28
2022-10-19T00:30:16.808Z,10.23
2022-10-19T00:33:21.902Z,10.15
2022-10-19T00:36:28.543Z,10.13
2022-10-19T00:39:30.515Z,10.10
2022-10-19T00:42:33.046Z,10.04
2022-10-19T00:45:35.161Z,10.12
2022-10-19T00:48:37.402Z,10.14
2022-10-19T00:51:40.872Z,10.16
2022-10-19T00:54:44.410Z,10.00
2022-10-19T00:57:46.367Z,9.99
2022-10-19T01:00:48.686Z,10.04
2022-10-19T01:03:50.671Z,10.03
2022-10-19T01:06:53.585Z,9.98
2022-10-19T01:09:56.017Z,9.97
2022-10-19T01:13:06.842Z,10.08
2022-10-19T01:16:16.383Z,10.13
2022-10-19T01:19:39.163Z,10.11
2022-10-19T01:22:44.070Z,9.99
2022-10-19T01:25:49.003Z,10.12
2022-10-19T01:28:56.793Z,10.21
2022-10-19T01:31:59.113Z,10.38
2022-10-19T01:35:07.361Z,10.32
2022-10-19T01:38:09.541Z,10.28
2022-10-19T01:41:14.997Z,10.36
2022-10-19T01:44:29.306Z,10.41
2022-10-19T01:47:50.162Z,10.45
2022-10-19T01:50:57.450Z,10.43
2022-10-19T01:54:02.050Z,10.32
2022-10-19T01:57:06.358Z,10.30
2022-10-19T02:00:10.747Z,10.25
2022-10-19T02:03:14.037Z,10.18
2022-10-19T02:06:16.599Z,10.20
2022-10-19T02:09:18.585Z,10.23
2022-10-19T02:12:21.503Z,10.15
2022-10-19T02:15:25.906Z,10.14
2022-10-19T02:18:33.381Z,10.01
2022-10-19T02:21:35.475Z,9.93
2022-10-19T02:24:37.688Z,9.95
2022-10-19T02:27:42.045Z,9.97
2022-10-19T02:30:44.389Z,9.99
2022-10-19T02:33:46.381Z,10.01
2022-10-19T02:36:48.803Z,9.96
2022-10-19T02:39:50.721Z,10.12
2022-10-19T02:42:56.614Z,10.08
2022-10-19T02:46:11.815Z,10.11
2022-10-19T02:49:14.595Z,10.11
2022-10-19T02:52:16.557Z,10.13
2022-10-19T02:55:18.819Z,10.17
2022-10-19T02:58:20.739Z,10.21
2022-10-19T03:01:23.071Z,10.31
2022-10-19T03:04:25.025Z,10.34
2022-10-19T03:07:27.249Z,10.41
2022-10-19T03:10:29.145Z,10.55
2022-10-19T03:13:31.554Z,10.91
2022-10-19T03:16:33.446Z,11.47
2022-10-19T03:19:36.031Z,12.23
2022-10-19T03:22:37.933Z,12.91
2022-10-19T03:25:40.165Z,13.29
2022-10-19T03:28:42.275Z,13.58
2022-10-19T03:31:44.926Z,13.66
2022-10-19T03:34:46.838Z,13.58
2022-10-19T03:37:49.050Z,13.65
2022-10-19T03:40:50.997Z,13.52
2022-10-19T03:43:53.367Z,13.65
2022-10-19T03:46:55.311Z,13.83
2022-10-19T03:49:57.582Z,13.78
2022-10-19T03:52:59.509Z,13.63
2022-10-19T03:56:20.667Z,13.63
2022-10-19T03:59:24.266Z,13.53
2022-10-19T04:02:26.419Z,13.42
2022-10-19T04:05:28.590Z,13.43
2022-10-19T04:08:30.521Z,13.49
2022-10-19T04:11:33.445Z,13.59
2022-10-19T04:14:52.451Z,13.57
2022-10-19T04:17:58.145Z,13.40
2022-10-19T04:21:01.510Z,13.28
2022-10-19T04:24:08.633Z,13.31
2022-10-19T04:27:10.508Z,13.17
2022-10-19T04:30:12.737Z,13.03
2022-10-19T04:33:14.704Z,13.00
2022-10-19T04:36:16.990Z,13.00
2022-10-19T04:39:18.938Z,13.00
2022-10-19T04:42:21.131Z,12.96
2022-10-19T04:45:23.020Z,13.04
2022-10-19T04:48:25.215Z,12.99
2022-10-19T04:51:27.583Z,13.06
2022-10-19T04:54:29.757Z,12.90
2022-10-19T04:57:31.863Z,12.77
2022-10-19T05:00:34.365Z,12.67
2022-10-19T05:03:36.511Z,12.69
2022-10-19T05:06:38.686Z,12.86
2022-10-19T05:09:40.618Z,12.88
2022-10-19T05:12:42.804Z,12.87
2022-10-19T05:15:54.649Z,12.81
2022-10-19T05:18:58.685Z,12.76
2022-10-19T05:22:00.556Z,12.78
2022-10-19T05:25:02.749Z,12.82
2022-10-19T05:28:04.624Z,12.79
2022-10-19T05:31:11.598Z,12.75
2022-10-19T05:34:13.486Z,12.73
2022-10-19T05:37:16.531Z,12.72
2022-10-19T05:40:18.474Z,12.71
2022-10-19T05:43:20.727Z,12.73
2022-10-19T05:46:23.342Z,12.75
2022-10-19T05:49:25.532Z,12.79
2022-10-19T05:52:27.686Z,12.85
2022-10-19T05:55:29.858Z,13.07
2022-10-19T05:58:31.791Z,13.27
2022-10-19T06:01:34.126Z,13.44
2022-10-19T06:04:36.339Z,13.29
2022-10-19T06:07:38.230Z,13.13
2022-10-19T06:10:40.396Z,13.11
2022-10-19T06:13:43.449Z,13.09
2022-10-19T06:16:48.729Z,13.08
2022-10-19T06:19:50.645Z,13.15
2022-10-19T06:22:52.769Z,13.18
2022-10-19T06:25:54.687Z,13.25
2022-10-19T06:29:00.105Z,13.37
2022-10-19T06:32:02.101Z,13.46
2022-10-19T06:35:04.377Z,13.45
2022-10-19T06:38:06.328Z,13.54
2022-10-19T06:41:09.059Z,13.60
2022-10-19T06:44:10.944Z,13.65
2022-10-19T06:47:13.066Z,13.74
2022-10-19T06:50:14.934Z,13.82
2022-10-19T06:53:17.161Z,13.90
2022-10-19T06:56:19.547Z,14.00
2022-10-19T06:59:21.739Z,14.11
2022-10-19T07:02:23.698Z,14.17
2022-10-19T07:05:25.921Z,14.22
2022-10-19T07:08:29.190Z,14.38
2022-10-19T07:11:31.481Z,14.48
2022-10-19T07:14:38.589Z,14.49
2022-10-19T07:17:40.725Z,14.61
2022-10-19T07:20:42.608Z,14.57
2022-10-19T07:23:45.620Z,14.56
2022-10-19T07:26:47.601Z,14.66
2022-10-19T07:29:49.881Z,14.96
2022-10-19T07:32:51.765Z,14.97
2022-10-19T07:35:58.817Z,15.02
2022-10-19T07:39:01.010Z,15.10
2022-10-19T07:42:05.000Z,15.13
2022-10-19T07:45:07.114Z,15.18
2022-10-19T07:48:09.333Z,15.21
2022-10-19T07:51:12.735Z,15.15
2022-10-19T07:54:15.307Z,15.11
2022-10-19T07:57:17.411Z,15.15
2022-10-19T08:00:19.648Z,15.18
2022-10-19T08:06:43.741Z,15.39
2022-10-19T08:09:53.401Z,15.42
2022-10-19T08:12:56.011Z,15.44
2022-10-19T08:15:58.167Z,15.51
2022-10-19T08:19:01.493Z,15.44
2022-10-19T08:22:03.708Z,15.54
2022-10-19T08:25:05.891Z,15.54
2022-10-19T08:28:08.167Z,15.65
2022-10-19T08:31:11.034Z,15.78
2022-10-19T08:34:13.703Z,15.80
2022-10-19T08:37:39.638Z,15.86
2022-10-19T08:40:37.726Z,15.91
2022-10-19T08:43:46.084Z,16.08
2022-10-19T08:47:07.765Z,16.13
2022-10-19T08:50:29.296Z,16.22
2022-10-19T08:53:32.401Z,16.27
2022-10-19T08:56:50.412Z,16.29
2022-10-19T08:59:59.604Z,16.37
2022-10-19T09:03:27.165Z,16.55
2022-10-19T09:06:49.722Z,16.62
2022-10-19T09:09:56.040Z,16.66
2022-10-19T09:13:03.170Z,16.69
2022-10-19T09:16:05.432Z,16.72
2022-10-19T09:19:17.905Z,16.91
2022-10-19T09:22:21.478Z,17.02
2022-10-19T09:25:25.443Z,17.14
2022-10-19T09:28:42.836Z,17.19
2022-10-19T09:31:45.218Z,17.41
2022-10-19T09:34:51.098Z,17.82
2022-10-19T09:37:54.666Z,18.08
2022-10-19T09:40:57.221Z,18.23
2022-10-19T09:43:59.471Z,18.46
2022-10-19T09:47:19.658Z,18.93
2022-10-19T09:50:23.180Z,19.05
2022-10-19T09:53:26.711Z,19.47
2022-10-19T09:56:28.951Z,19.87
2022-10-19T09:59:36.181Z,20.07
2022-10-19T10:02:38.612Z,20.01
2022-10-19T10:05:41.292Z,20.25
2022-10-19T10:08:48.075Z,20.29
2022-10-19T10:11:51.052Z,20.40
2022-10-19T10:14:54.080Z,20.53
2022-10-19T10:17:57.210Z,20.68
2022-10-19T10:21:06.794Z,20.74
2022-10-19T10:24:12.593Z,20.68
2022-10-19T10:27:25.029Z,20.65
2022-10-19T10:30:29.216Z,21.12
2022-10-19T10:33:44.355Z,20.85
2022-10-19T10:36:49.237Z,20.46
2022-10-19T10:39:57.721Z,20.94
2022-10-19T10:43:06.156Z,21.15
2022-10-19T10:46:13.916Z,21.26
2022-10-19T10:49:19.884Z,21.54
2022-10-19T10:52:21.894Z,22.20
2022-10-19T10:55:26.488Z,22.97
2022-10-19T10:58:44.638Z,23.77
2022-10-19T11:02:04.196Z,25.21
2022-10-19T11:05:10.829Z,25.55
2022-10-19T11:08:18.507Z,27.98
2022-10-19T11:11:30.427Z,27.35
2022-10-19T11:14:37.025Z,28.50
2022-10-19T11:17:41.198Z,30.17
2022-10-19T11:20:49.307Z,27.19
2022-10-19T11:23:54.210Z,28.51
2022-10-19T11:27:22.797Z,27.65
2022-10-19T11:30:25.292Z,29.08
2022-10-19T11:33:38.778Z,29.30
2022-10-19T11:36:43.824Z,27.95
2022-10-19T11:40:05.212Z,28.38
2022-10-19T11:43:30.378Z,27.32
2022-10-19T11:46:38.140Z,27.79
2022-10-19T11:49:58.712Z,28.28
2022-10-19T11:53:10.861Z,29.23
2022-10-19T11:56:17.170Z,28.05
2022-10-19T11:59:38.489Z,27.22
2022-10-19T12:02:40.620Z,25.84
2022-10-19T12:06:12.711Z,25.04
2022-10-19T12:09:33.365Z,22.44
2022-10-19T12:12:49.616Z,23.73
2022-10-19T12:15:53.922Z,23.65
2022-10-19T12:19:00.673Z,23.64
2022-10-19T12:22:04.534Z,23.99
2022-10-19T12:25:06.938Z,23.43
2022-10-19T12:28:11.003Z,22.62
2022-10-19T12:31:14.068Z,21.40
2022-10-19T12:34:22.372Z,20.61
2022-10-19T12:37:24.736Z,20.53
2022-10-19T12:40:37.218Z,20.46
2022-10-19T12:43:49.191Z,20.96
2022-10-19T12:46:56.431Z,21.01
2022-10-19T12:50:05.262Z,21.30
2022-10-19T12:53:07.352Z,22.48
2022-10-19T12:56:23.782Z,23.00
2022-10-19T12:59:27.313Z,23.41
2022-10-19T13:02:35.354Z,23.52
2022-10-19T13:05:37.462Z,24.54
2022-10-19T13:08:47.262Z,23.43
2022-10-19T13:12:25.605Z,23.78
2022-10-19T13:15:34.547Z,22.95
2022-10-19T13:19:01.668Z,22.72
2022-10-19T13:22:25.614Z,23.30
2022-10-19T13:25:35.040Z,23.43
2022-10-19T13:28:38.322Z,23.91
2022-10-19T13:31:40.523Z,23.81
2022-10-19T13:34:42.713Z,23.21
2022-10-19T13:37:44.725Z,22.32
2022-10-19T13:40:52.777Z,22.60
2022-10-19T13:44:03.072Z,22.01
2022-10-19T13:47:08.106Z,21.74
2022-10-19T13:50:19.155Z,21.09
2022-10-19T13:53:24.827Z,20.85
2022-10-19T13:56:33.021Z,20.65
2022-10-19T13:59:54.827Z,20.71
2022-10-19T14:02:56.916Z,19.75
2022-10-19T14:06:06.323Z,18.98
2022-10-19T14:09:27.223Z,18.90
2022-10-19T14:12:31.073Z,18.83
2022-10-19T14:15:34.590Z,18.39
2022-10-19T14:18:37.676Z,18.34
2022-10-19T14:21:40.002Z,18.23
2022-10-19T14:24:42.202Z,18.12
2022-10-19T14:27:45.125Z,17.95
2022-10-19T14:30:54.455Z,17.83
2022-10-19T14:33:59.882Z,17.66
2022-10-19T14:37:02.109Z,17.53
2022-10-19T14:40:08.710Z,17.40
2022-10-19T14:43:24.302Z,17.29
2022-10-19T14:46:26.967Z,17.11
2022-10-19T14:49:29.920Z,16.98
2022-10-19T14:52:34.530Z,16.91
2022-10-19T14:55:39.548Z,16.74
2022-10-19T14:58:47.217Z,16.58
2022-10-19T15:01:53.601Z,16.47
2022-10-19T15:04:57.154Z,16.23
2022-10-19T15:08:06.310Z,16.21
2022-10-19T15:11:19.317Z,16.05
2022-10-19T15:14:23.317Z,15.96
2022-10-19T15:17:30.410Z,15.89
2022-10-19T15:20:44.276Z,15.86
2022-10-19T15:24:15.949Z,15.82
2022-10-19T15:27:19.303Z,15.67
2022-10-19T15:30:26.365Z,15.57
2022-10-19T15:33:28.623Z,15.50
2022-10-19T15:36:31.362Z,15.40
2022-10-19T15:39:40.987Z,15.31
2022-10-19T15:42:46.911Z,15.32
2022-10-19T15:45:58.817Z,15.12
2022-10-19T15:49:04.331Z,15.01
2022-10-19T15:52:25.715Z,14.92
2022-10-19T15:55:27.650Z,14.98
2022-10-19T15:58:29.972Z,14.81
2022-10-19T16:01:32.731Z,14.76
2022-10-19T16:04:34.885Z,14.65
2022-10-19T16:07:38.455Z,14.54
2022-10-19T16:10:40.787Z,14.46
2022-10-19T16:13:42.751Z,14.40
2022-10-19T16:16:44.981Z,14.39
2022-10-19T16:19:47.178Z,14.46
2022-10-19T16:22:49.362Z,14.43
2022-10-19T16:25:52.823Z,14.27
2022-10-19T16:28:55.500Z,13.94
2022-10-19T16:31:57.493Z,13.82
2022-10-19T16:34:59.719Z,13.90
2022-10-19T16:38:01.682Z,13.98
2022-10-19T16:41:05.857Z,13.96
2022-10-19T16:44:10.774Z,14.01
2022-10-19T16:47:13.832Z,13.93
2022-10-19T16:50:15.758Z,13.86
2022-10-19T16:53:17.901Z,13.77
2022-10-19T16:56:20.114Z,13.81
2022-10-19T16:59:22.305Z,13.61
2022-10-19T17:02:24.251Z,13.56
2022-10-19T17:05:26.598Z,13.51
2022-10-19T17:08:36.780Z,13.45
2022-10-19T17:11:39.640Z,13.51
2022-10-19T17:14:42.072Z,13.48
2022-10-19T17:17:44.293Z,13.31
2022-10-19T17:20:46.197Z,13.32
2022-10-19T17:23:51.323Z,13.23
2022-10-19T17:26:54.426Z,13.25
2022-10-19T17:29:56.667Z,13.25
2022-10-19T17:32:59.613Z,13.12
2022-10-19T17:36:05.781Z,13.17
2022-10-19T17:39:09.158Z,13.08
2022-10-19T17:42:12.369Z,13.00
2022-10-19T17:45:14.648Z,12.98
2022-10-19T17:48:16.805Z,12.96
2022-10-19T17:51:20.208Z,12.94
2022-10-19T17:54:22.428Z,12.93
2022-10-19T17:57:24.375Z,12.88
2022-10-19T18:00:26.629Z,12.85
2022-10-19T18:03:29.685Z,12.74
2022-10-19T18:06:33.396Z,12.67
2022-10-19T18:09:35.574Z,12.57
2022-10-19T18:12:37.516Z,12.61
2022-10-19T18:15:39.711Z,12.52
2022-10-19T18:18:43.738Z,12.38
2022-10-19T18:21:46.846Z,12.31
2022-10-19T18:24:49.518Z,12.38
2022-10-19T18:27:51.679Z,12.31
2022-10-19T18:30:53.549Z,12.26
2022-10-19T18:33:57.900Z,12.17
2022-10-19T18:36:59.887Z,12.12
2022-10-19T18:40:02.057Z,12.15
2022-10-19T18:43:05.063Z,12.09
2022-10-19T18:46:08.203Z,12.13
2022-10-19T18:49:11.162Z,12.09
2022-10-19T18:52:13.458Z,12.08
2022-10-19T18:55:15.436Z,12.00
2022-10-19T18:58:17.650Z,11.80
2022-10-19T19:01:19.565Z,11.69
2022-10-19T19:04:21.856Z,11.60
2022-10-19T19:07:23.913Z,11.42
2022-10-19T19:10:26.098Z,11.29
2022-10-19T19:13:27.983Z,11.60
2022-10-19T19:16:32.454Z,11.60
2022-10-19T19:19:34.350Z,11.70
2022-10-19T19:22:37.038Z,11.85
2022-10-19T19:25:39.924Z,11.67
2022-10-19T19:28:46.374Z,11.65
2022-10-19T19:31:53.480Z,11.69
2022-10-19T19:34:55.705Z,11.61
2022-10-19T19:37:57.642Z,11.72
2022-10-19T19:40:59.848Z,11.64
2022-10-19T19:44:01.798Z,11.51
2022-10-19T19:47:04.246Z,11.17
2022-10-19T19:50:06.450Z,11.22
2022-10-19T19:53:08.647Z,11.17
2022-10-19T19:56:11.592Z,11.14
2022-10-19T19:59:13.799Z,11.02
2022-10-19T20:02:16.478Z,10.84
2022-10-19T20:05:19.054Z,10.72
2022-10-19T20:08:20.947Z,10.53
2022-10-19T20:11:24.389Z,10.44
2022-10-19T20:14:26.322Z,10.36
2022-10-19T20:17:28.479Z,10.51
2022-10-19T20:20:30.393Z,10.56
2022-10-19T20:23:32.635Z,10.54
2022-10-19T20:26:34.809Z,10.45
2022-10-19T20:29:37.007Z,10.24
2022-10-19T20:32:39.008Z,10.10
2022-10-19T20:35:41.249Z,10.20
2022-10-19T20:38:48.070Z,10.35
2022-10-19T20:41:50.221Z,10.40
2022-10-19T20:44:54.638Z,10.46
2022-10-19T20:47:56.823Z,10.45
2022-10-19T20:51:31.577Z,10.41
2022-10-19T20:54:34.082Z,10.44
2022-10-19T20:57:36.030Z,10.32
2022-10-19T21:00:38.219Z,10.37
2022-10-19T21:03:40.718Z,10.41
2022-10-19T21:06:44.311Z,10.39
2022-10-19T21:09:46.219Z,10.36
2022-10-19T21:12:48.444Z,10.23
2022-10-19T21:15:50.393Z,10.25
2022-10-19T21:18:52.581Z,10.19
2022-10-19T21:21:56.172Z,10.14
2022-10-19T21:24:58.426Z,10.14
2022-10-19T21:28:00.407Z,10.11
2022-10-19T21:31:06.737Z,10.03
2022-10-19T21:34:09.407Z,10.07
2022-10-19T21:37:11.675Z,10.03
2022-10-19T21:40:13.610Z,10.02
2022-10-19T21:43:15.835Z,10.00
2022-10-19T21:46:19.252Z,10.03
2022-10-19T21:49:21.463Z,10.01
2022-10-19T21:52:23.377Z,10.00
2022-10-19T21:55:26.160Z,9.88
2022-10-19T21:58:28.045Z,9.88
2022-10-19T22:01:37.117Z,9.85
2022-10-19T22:04:42.470Z,9.89
2022-10-19T22:07:44.329Z,9.78
2022-10-19T22:10:46.519Z,9.70
2022-10-19T22:13:49.073Z,9.72
2022-10-19T22:16:51.279Z,9.84
2022-10-19T22:19:53.241Z,9.79
2022-10-19T22:22:55.422Z,9.65
2022-10-19T22:25:57.386Z,9.53
2022-10-19T22:29:00.590Z,9.56
2022-10-19T22:32:02.600Z,9.56
2022-10-19T22:35:05.399Z,9.36
2022-10-19T22:38:07.301Z,9.38
2022-10-19T22:41:47.283Z,9.30
2022-10-19T22:45:08.175Z,9.23
2022-10-19T22:48:10.487Z,9.38
2022-10-19T22:51:12.519Z,9.42
2022-10-19T22:54:15.085Z,9.23
2022-10-19T22:57:17.134Z,9.05
2022-10-19T23:00:19.443Z,8.89
2022-10-19T23:03:21.378Z,8.77
2022-10-19T23:06:23.663Z,8.69
2022-10-19T23:09:25.614Z,8.61
2022-10-19T23:12:27.847Z,8.58
2022-10-19T23:15:29.819Z,9.01
2022-10-19T23:18:33.035Z,8.79
2022-10-19T23:21:34.962Z,8.61
2022-10-19T23:24:37.179Z,8.44
2022-10-19T23:27:39.367Z,8.30
2022-10-19T23:30:41.758Z,8.28
2022-10-19T23:33:44.158Z,8.28
2022-10-19T23:36:46.444Z,8.36
2022-10-19T23:39:48.375Z,8.30
2022-10-19T23:42:50.668Z,8.23
2022-10-19T23:45:52.646Z,8.22
2022-10-19T23:48:54.872Z,8.18
2022-10-19T23:51:56.839Z,8.19
2022-10-19T23:54:59.023Z,8.21
2022-10-19T23:58:00.953Z,8.05
